createdAt,value
2023-02-17T00:00:22.274Z,16.800
2023-02-17T00:01:47.037Z,16.950
2023-02-17T00:02:40.151Z,16.800
2023-02-17T00:03:25.148Z,16.300
2023-02-17T00:04:28.310Z,16.350
2023-02-17T00:05:50.840Z,16.000
2023-02-17T00:06:36.119Z,16.050
2023-02-17T00:07:28.191Z,16.900
2023-02-17T00:08:52.445Z,17.300
2023-02-17T00:09:33.073Z,18.400
2023-02-17T00:10:27.173Z,17.800
2023-02-17T00:11:27.664Z,16.700
2023-02-17T00:12:49.865Z,16.800
2023-02-17T00:13:35.947Z,17.400
2023-02-17T00:14:21.639Z,17.100
2023-02-17T00:15:23.728Z,16.900
2023-02-17T00:16:46.696Z,15.900
2023-02-17T00:17:29.898Z,16.900
2023-02-17T00:18:31.881Z,16.900
2023-02-17T00:19:25.078Z,16.200
2023-02-17T00:20:23.568Z,16.200
2023-02-17T00:21:23.534Z,15.900
2023-02-17T00:22:29.383Z,17.100
2023-02-17T00:23:21.145Z,17.650
2023-02-17T00:24:33.256Z,16.600
2023-02-17T00:25:34.097Z,16.500
2023-02-17T00:26:27.103Z,17.050
2023-02-17T00:28:26.708Z,16.000
2023-02-17T00:29:32.863Z,16.600
2023-02-17T00:30:21.125Z,16.400
2023-02-17T00:31:35.155Z,16.350
2023-02-17T00:32:21.960Z,16.550
2023-02-17T00:33:31.282Z,17.000
2023-02-17T00:34:24.219Z,17.800
2023-02-17T00:35:31.305Z,17.850
2023-02-17T00:36:36.242Z,18.000
2023-02-17T00:37:25.560Z,18.250
2023-02-17T00:38:22.330Z,17.900
2023-02-17T00:39:26.175Z,17.800
2023-02-17T00:40:35.317Z,18.500
2023-02-17T00:41:29.119Z,18.700
2023-02-17T00:42:21.993Z,18.100
2023-02-17T00:43:20.766Z,19.000
2023-02-17T00:44:33.310Z,17.900
2023-02-17T00:45:27.419Z,18.450
2023-02-17T00:46:27.814Z,18.500
2023-02-17T00:47:42.100Z,19.000
2023-02-17T00:48:23.165Z,18.500
2023-02-17T00:49:25.361Z,19.300
2023-02-17T00:50:24.016Z,19.800
2023-02-17T00:51:37.469Z,20.100
2023-02-17T00:52:31.696Z,19.600
2023-02-17T00:53:23.417Z,19.300
2023-02-17T00:54:27.571Z,19.400
2023-02-17T00:55:37.518Z,19.200
2023-02-17T00:56:31.351Z,19.000
2023-02-17T00:57:24.233Z,19.900
2023-02-17T00:58:43.487Z,19.350
2023-02-17T00:59:36.825Z,18.700
2023-02-17T01:00:27.742Z,20.000
2023-02-17T01:01:48.954Z,19.200
2023-02-17T01:02:41.702Z,18.800
2023-02-17T01:03:34.946Z,19.500
2023-02-17T01:04:29.075Z,19.100
2023-02-17T01:05:25.491Z,19.250
2023-02-17T01:06:30.585Z,19.550
2023-02-17T01:07:33.323Z,18.900
2023-02-17T01:08:26.811Z,18.800
2023-02-17T01:09:48.995Z,18.450
2023-02-17T01:10:30.829Z,18.800
2023-02-17T01:11:31.835Z,18.350
2023-02-17T01:12:23.142Z,18.900
2023-02-17T01:13:44.990Z,19.600
2023-02-17T01:14:37.525Z,19.000
2023-02-17T01:15:29.317Z,18.600
2023-02-17T01:16:22.274Z,19.150
2023-02-17T01:17:30.448Z,18.400
2023-02-17T01:18:34.891Z,18.800
2023-02-17T01:19:28.161Z,18.600
2023-02-17T01:20:20.300Z,17.550
2023-02-17T01:21:43.911Z,18.500
2023-02-17T01:22:27.566Z,17.700
2023-02-17T01:23:26.413Z,18.500
2023-02-17T01:24:21.590Z,18.500
2023-02-17T01:25:40.356Z,19.200
2023-02-17T01:26:27.507Z,19.100
2023-02-17T01:27:24.463Z,18.500
2023-02-17T01:28:31.357Z,19.800
2023-02-17T01:29:32.840Z,18.900
2023-02-17T01:30:21.329Z,18.650
2023-02-17T01:31:23.717Z,17.000
2023-02-17T01:32:43.995Z,16.800
2023-02-17T01:33:24.810Z,16.200
2023-02-17T01:34:29.615Z,16.650
2023-02-17T01:35:22.747Z,16.000
2023-02-17T01:36:35.953Z,17.400
2023-02-17T01:37:22.625Z,17.300
2023-02-17T01:38:28.145Z,17.900
2023-02-17T01:39:20.930Z,17.700
2023-02-17T01:40:21.529Z,17.800
2023-02-17T01:41:34.826Z,17.550
2023-02-17T01:42:28.203Z,16.900
2023-02-17T01:43:40.876Z,17.800
2023-02-17T01:44:25.835Z,17.400
2023-02-17T01:46:00.722Z,16.100
2023-02-17T01:46:48.503Z,15.100
2023-02-17T01:47:34.825Z,15.300
2023-02-17T01:48:22.156Z,14.200
2023-02-17T01:49:29.541Z,14.100
2023-02-17T01:50:24.506Z,16.400
2023-02-17T01:51:28.764Z,17.200
2023-02-17T01:52:36.419Z,15.400
2023-02-17T01:53:27.067Z,15.400
2023-02-17T01:54:22.342Z,17.900
2023-02-17T01:55:23.718Z,18.000
2023-02-17T01:56:29.318Z,16.800
2023-02-17T01:57:27.536Z,16.700
2023-02-17T01:58:32.002Z,17.300
2023-02-17T01:59:42.478Z,17.600
2023-02-17T02:00:35.546Z,18.100
2023-02-17T02:01:40.226Z,17.000
2023-02-17T02:06:38.284Z,17.100
2023-02-17T02:07:41.424Z,17.800
2023-02-17T02:08:34.697Z,17.900
2023-02-17T02:09:44.404Z,18.600
2023-02-17T02:10:43.760Z,18.700
2023-02-17T02:11:23.169Z,17.700
2023-02-17T02:16:32.033Z,17.400
2023-02-17T02:17:22.108Z,15.250
2023-02-17T02:19:18.870Z,14.800
2023-02-17T02:19:32.868Z,14.450
2023-02-17T02:20:24.109Z,14.800
2023-02-17T02:21:46.434Z,17.400
2023-02-17T02:22:41.929Z,16.800
2023-02-17T02:23:32.277Z,16.800
2023-02-17T02:24:30.083Z,15.050
2023-02-17T02:25:43.661Z,14.700
2023-02-17T02:26:36.610Z,14.750
2023-02-17T02:27:33.229Z,16.500
2023-02-17T02:28:21.185Z,16.800
2023-02-17T02:29:19.978Z,16.050
2023-02-17T02:30:35.822Z,15.050
2023-02-17T02:31:31.234Z,14.500
2023-02-17T02:32:23.564Z,14.000
2023-02-17T02:33:39.481Z,13.650
2023-02-17T02:34:35.808Z,14.350
2023-02-17T02:35:20.683Z,14.600
2023-02-17T02:36:21.855Z,16.250
2023-02-17T02:37:43.601Z,16.600
2023-02-17T02:38:29.543Z,16.250
2023-02-17T02:39:26.964Z,18.150
2023-02-17T02:40:20.145Z,18.900
2023-02-17T02:41:32.366Z,17.700
2023-02-17T02:42:25.302Z,17.500
2023-02-17T02:43:24.269Z,18.650
2023-02-17T02:44:46.881Z,19.650
2023-02-17T02:45:28.908Z,19.100
2023-02-17T02:46:23.039Z,17.650
2023-02-17T02:47:24.125Z,17.200
2023-02-17T02:48:29.155Z,20.100
2023-02-17T02:49:28.405Z,19.300
2023-02-17T02:50:21.235Z,19.500
2023-02-17T02:51:32.123Z,16.500
2023-02-17T02:52:27.126Z,16.100
2023-02-17T02:53:23.136Z,15.850
2023-02-17T02:54:29.757Z,17.500
2023-02-17T02:55:21.166Z,18.400
2023-02-17T02:56:29.894Z,17.500
2023-02-17T02:57:21.240Z,19.200
2023-02-17T02:58:25.349Z,19.200
2023-02-17T02:59:29.169Z,16.500
2023-02-17T03:00:25.504Z,17.100
2023-02-17T03:01:32.417Z,18.550
2023-02-17T03:02:25.439Z,18.350
2023-02-17T03:03:24.340Z,17.200
2023-02-17T03:04:19.712Z,19.500
2023-02-17T03:05:28.812Z,18.000
2023-02-17T03:06:20.237Z,16.600
2023-02-17T03:07:23.105Z,16.300
2023-02-17T03:08:33.458Z,15.550
2023-02-17T03:09:29.943Z,15.700
2023-02-17T03:10:24.101Z,14.700
2023-02-17T03:11:22.393Z,15.650
2023-02-17T03:12:31.349Z,16.800
2023-02-17T03:13:24.431Z,19.050
2023-02-17T03:14:23.121Z,17.800
2023-02-17T03:15:36.112Z,17.150
2023-02-17T03:16:29.386Z,17.350
2023-02-17T03:17:30.030Z,19.700
2023-02-17T03:18:20.073Z,20.600
2023-02-17T03:19:31.366Z,18.800
2023-02-17T03:20:28.015Z,17.750
2023-02-17T03:21:23.721Z,18.700
2023-02-17T03:22:21.339Z,17.850
2023-02-17T03:23:29.317Z,17.000
2023-02-17T03:24:32.849Z,16.550
2023-02-17T03:25:24.163Z,16.300
2023-02-17T03:26:32.222Z,17.150
2023-02-17T03:27:27.345Z,17.450
2023-02-17T03:28:26.382Z,16.500
2023-02-17T03:29:23.789Z,16.550
2023-02-17T03:30:45.784Z,16.000
2023-02-17T03:31:29.056Z,15.500
2023-02-17T03:32:28.383Z,15.500
2023-02-17T03:33:22.042Z,15.700
2023-02-17T03:34:37.783Z,15.600
2023-02-17T03:35:23.394Z,15.300
2023-02-17T03:36:22.208Z,15.650
2023-02-17T03:37:28.242Z,15.800
2023-02-17T03:38:25.784Z,16.450
2023-02-17T03:39:37.707Z,15.900
2023-02-17T03:40:23.321Z,16.200
2023-02-17T03:41:27.308Z,16.900
2023-02-17T03:42:20.236Z,16.700
2023-02-17T03:43:26.306Z,16.300
2023-02-17T03:44:31.014Z,15.900
2023-02-17T03:45:40.677Z,15.700
2023-02-17T03:46:22.685Z,15.400
2023-02-17T03:47:33.828Z,15.500
2023-02-17T03:48:27.172Z,15.700
2023-02-17T03:49:23.209Z,16.700
2023-02-17T03:50:31.294Z,16.800
2023-02-17T03:51:19.509Z,17.900
2023-02-17T03:52:25.313Z,17.900
2023-02-17T03:53:42.596Z,18.400
2023-02-17T03:54:35.789Z,18.000
2023-02-17T03:55:26.845Z,18.900
2023-02-17T03:56:22.297Z,19.350
2023-02-17T03:57:37.508Z,21.250
2023-02-17T03:58:23.177Z,22.100
2023-02-17T03:59:23.354Z,21.150
2023-02-17T04:00:21.176Z,22.450
2023-02-17T04:01:31.567Z,21.950
2023-02-17T04:02:27.175Z,20.800
2023-02-17T04:03:24.374Z,20.200
2023-02-17T04:04:38.812Z,19.400
2023-02-17T04:05:28.618Z,19.900
2023-02-17T04:06:25.057Z,21.050
2023-02-17T04:07:22.410Z,22.000
2023-02-17T04:08:35.424Z,21.650
2023-02-17T04:09:20.961Z,20.800
2023-02-17T04:10:23.792Z,21.500
2023-02-17T04:11:21.892Z,22.650
2023-02-17T04:12:28.953Z,22.400
2023-02-17T04:13:28.264Z,22.800
2023-02-17T04:14:23.118Z,22.500
2023-02-17T04:15:38.597Z,22.850
2023-02-17T04:16:42.852Z,21.900
2023-02-17T04:17:32.976Z,21.600
2023-02-17T04:18:25.975Z,20.900
2023-02-17T04:19:33.094Z,21.150
2023-02-17T04:20:32.303Z,21.300
2023-02-17T04:21:21.656Z,22.000
2023-02-17T04:22:31.141Z,21.800
2023-02-17T04:23:27.085Z,22.350
2023-02-17T04:24:38.412Z,22.000
2023-02-17T04:25:31.555Z,21.700
2023-02-17T04:26:23.484Z,21.600
2023-02-17T04:27:25.726Z,22.700
2023-02-17T04:28:29.578Z,20.000
2023-02-17T04:29:22.518Z,17.550
2023-02-17T04:30:30.040Z,16.800
2023-02-17T04:31:39.019Z,17.000
2023-02-17T04:32:34.310Z,17.400
2023-02-17T04:33:30.770Z,17.100
2023-02-17T04:34:20.442Z,16.400
2023-02-17T04:35:36.143Z,16.500
2023-02-17T04:36:28.132Z,18.000
2023-02-17T04:37:33.147Z,17.350
2023-02-17T04:38:19.904Z,19.100
2023-02-17T04:39:20.955Z,19.700
2023-02-17T04:40:32.795Z,20.550
2023-02-17T04:41:24.342Z,18.700
2023-02-17T04:42:23.132Z,20.100
2023-02-17T04:43:31.226Z,19.750
2023-02-17T04:44:22.598Z,19.250
2023-02-17T04:45:23.357Z,20.800
2023-02-17T04:46:19.621Z,18.850
2023-02-17T04:47:35.704Z,20.900
2023-02-17T04:48:32.826Z,19.750
2023-02-17T04:49:21.981Z,20.200
2023-02-17T04:50:28.713Z,21.150
2023-02-17T04:51:28.567Z,21.650
2023-02-17T04:52:20.232Z,21.350
2023-02-17T04:53:20.131Z,21.200
2023-02-17T04:54:31.275Z,22.200
2023-02-17T04:55:21.228Z,22.300
2023-02-17T04:56:21.383Z,22.150
2023-02-17T04:57:32.299Z,22.150
2023-02-17T04:58:27.670Z,22.900
2023-02-17T04:59:25.656Z,22.550
2023-02-17T05:00:50.077Z,22.900
2023-02-17T05:01:26.901Z,23.250
2023-02-17T05:02:41.397Z,21.650
2023-02-17T05:03:25.231Z,21.700
2023-02-17T05:04:23.226Z,22.100
2023-02-17T05:05:29.686Z,23.450
2023-02-17T05:06:23.280Z,22.400
2023-02-17T05:07:21.088Z,22.200
2023-02-17T05:08:29.584Z,21.350
2023-02-17T05:09:27.737Z,22.300
2023-02-17T05:10:23.652Z,22.200
2023-02-17T05:11:27.284Z,22.850
2023-02-17T05:12:23.316Z,22.800
2023-02-17T05:13:32.064Z,22.800
2023-02-17T05:14:23.609Z,22.650
2023-02-17T05:15:44.563Z,23.200
2023-02-17T05:16:47.489Z,23.300
2023-02-17T05:17:30.678Z,24.400
2023-02-17T05:18:32.976Z,24.000
2023-02-17T05:19:24.632Z,23.650
2023-02-17T05:20:37.905Z,23.800
2023-02-17T05:21:19.250Z,23.700
2023-02-17T05:22:22.112Z,24.100
2023-02-17T05:23:48.651Z,23.000
2023-02-17T05:24:36.191Z,24.200
2023-02-17T05:25:21.844Z,22.700
2023-02-17T05:26:31.508Z,23.900
2023-02-17T05:27:22.041Z,23.000
2023-02-17T05:28:28.160Z,24.150
2023-02-17T05:29:28.583Z,23.850
2023-02-17T05:30:37.927Z,23.850
2023-02-17T05:31:35.976Z,24.300
2023-02-17T05:32:24.041Z,23.950
2023-02-17T05:33:34.922Z,22.350
2023-02-17T05:34:26.159Z,22.700
2023-02-17T05:35:31.428Z,22.250
2023-02-17T05:36:29.985Z,21.300
2023-02-17T05:37:23.381Z,20.750
2023-02-17T05:38:41.114Z,19.500
2023-02-17T05:39:26.063Z,18.400
2023-02-17T05:40:22.260Z,20.900
2023-02-17T05:41:32.104Z,19.600
2023-02-17T05:42:24.953Z,19.700
2023-02-17T05:43:22.226Z,20.200
2023-02-17T05:44:26.980Z,17.300
2023-02-17T05:45:19.550Z,17.900
2023-02-17T05:46:26.163Z,19.600
2023-02-17T05:47:43.461Z,17.400
2023-02-17T05:48:36.299Z,18.100
2023-02-17T05:49:29.252Z,19.100
2023-02-17T05:50:20.868Z,17.800
2023-02-17T05:51:31.200Z,20.800
2023-02-17T05:52:24.970Z,21.400
2023-02-17T05:53:32.178Z,20.700
2023-02-17T05:54:46.698Z,20.550
2023-02-17T05:55:40.965Z,21.300
2023-02-17T05:56:32.898Z,23.200
2023-02-17T05:57:28.383Z,22.150
2023-02-17T05:58:35.744Z,23.900
2023-02-17T05:59:28.220Z,24.350
2023-02-17T06:00:23.175Z,24.200
2023-02-17T06:01:21.973Z,24.200
2023-02-17T06:02:44.985Z,23.100
2023-02-17T06:03:29.700Z,22.500
2023-02-17T06:04:32.458Z,19.000
2023-02-17T06:05:22.356Z,21.400
2023-02-17T06:06:33.459Z,21.700
2023-02-17T06:07:24.820Z,21.600
2023-02-17T06:08:19.931Z,20.350
2023-02-17T06:09:32.807Z,24.000
2023-02-17T06:10:34.988Z,23.800
2023-02-17T06:11:30.815Z,25.400
2023-02-17T06:12:19.978Z,26.800
2023-02-17T06:13:20.847Z,25.650
2023-02-17T06:14:26.399Z,25.600
2023-02-17T06:15:21.872Z,25.300
2023-02-17T06:16:24.540Z,23.900
2023-02-17T06:17:46.138Z,23.900
2023-02-17T06:18:30.994Z,22.800
2023-02-17T06:19:23.064Z,26.300
2023-02-17T06:20:26.332Z,27.950
2023-02-17T06:21:34.733Z,24.650
2023-02-17T06:22:26.019Z,24.200
2023-02-17T06:23:57.483Z,26.600
2023-02-17T06:24:50.815Z,25.400
2023-02-17T06:25:24.246Z,24.400
2023-02-17T06:26:52.117Z,28.800
2023-02-17T06:27:29.372Z,30.200
2023-02-17T06:28:21.098Z,27.650
2023-02-17T06:29:30.144Z,26.700
2023-02-17T06:30:23.983Z,32.100
2023-02-17T06:31:27.199Z,28.250
2023-02-17T06:32:44.214Z,24.000
2023-02-17T06:33:30.392Z,25.500
2023-02-17T06:34:32.551Z,24.400
2023-02-17T06:35:26.208Z,26.300
2023-02-17T06:36:33.786Z,26.300
2023-02-17T06:37:27.246Z,26.600
2023-02-17T06:38:20.201Z,27.150
2023-02-17T06:39:46.711Z,26.300
2023-02-17T06:40:34.448Z,28.300
2023-02-17T06:41:36.359Z,26.800
2023-02-17T06:42:26.251Z,26.350
2023-02-17T06:43:23.337Z,26.900
2023-02-17T06:44:27.180Z,30.100
2023-02-17T06:45:25.907Z,29.100
2023-02-17T06:46:49.979Z,27.850
2023-02-17T06:47:37.626Z,26.800
2023-02-17T06:48:23.806Z,26.300
2023-02-17T06:49:34.709Z,25.000
2023-02-17T06:50:27.504Z,23.700
2023-02-17T06:51:22.128Z,23.700
2023-02-17T06:52:27.967Z,26.500
2023-02-17T06:53:20.963Z,26.900
2023-02-17T06:54:35.206Z,26.400
2023-02-17T06:55:25.769Z,26.300
2023-02-17T06:56:39.512Z,25.850
2023-02-17T06:57:33.551Z,23.000
2023-02-17T06:58:24.002Z,23.800
2023-02-17T06:59:21.875Z,25.300
2023-02-17T07:00:25.051Z,26.500
2023-02-17T07:01:42.906Z,25.600
2023-02-17T07:02:29.588Z,25.600
2023-02-17T07:03:33.161Z,25.550
2023-02-17T07:04:36.976Z,26.650
2023-02-17T07:05:31.922Z,27.100
2023-02-17T07:06:24.861Z,26.000
2023-02-17T07:07:29.969Z,25.200
2023-02-17T07:08:22.098Z,25.050
2023-02-17T07:09:30.927Z,25.300
2023-02-17T07:10:23.141Z,25.250
2023-02-17T07:11:37.193Z,25.600
2023-02-17T07:12:32.416Z,25.900
2023-02-17T07:13:27.962Z,26.000
2023-02-17T07:14:33.892Z,22.450
2023-02-17T07:15:27.107Z,21.700
2023-02-17T07:16:27.719Z,19.350
2023-02-17T07:17:21.098Z,18.850
2023-02-17T07:18:44.466Z,18.100
2023-02-17T07:19:38.387Z,21.300
2023-02-17T07:20:29.296Z,18.200
2023-02-17T07:21:24.170Z,20.000
2023-02-17T07:22:30.040Z,21.950
2023-02-17T07:23:22.843Z,20.000
2023-02-17T07:24:24.153Z,22.300
2023-02-17T07:25:48.872Z,22.350
2023-02-17T07:26:41.695Z,23.100
2023-02-17T07:27:26.252Z,21.800
2023-02-17T07:28:26.910Z,24.400
2023-02-17T07:29:20.051Z,25.900
2023-02-17T07:30:29.286Z,21.050
2023-02-17T07:31:20.270Z,19.650
2023-02-17T07:32:53.898Z,23.100
2023-02-17T07:33:31.911Z,23.700
2023-02-17T07:34:37.615Z,21.500
2023-02-17T07:35:23.750Z,24.700
2023-02-17T07:36:24.593Z,24.450
2023-02-17T07:37:31.111Z,22.400
2023-02-17T07:38:25.615Z,22.700
2023-02-17T07:39:37.088Z,21.550
2023-02-17T07:40:52.946Z,22.900
2023-02-17T07:41:39.184Z,25.650
2023-02-17T07:42:27.163Z,26.100
2023-02-17T07:43:28.165Z,23.800
2023-02-17T07:44:21.873Z,21.300
2023-02-17T07:45:28.270Z,19.800
2023-02-17T07:46:21.293Z,19.700
2023-02-17T07:47:56.103Z,18.950
2023-02-17T07:48:42.599Z,21.100
2023-02-17T07:49:28.347Z,19.500
2023-02-17T07:50:34.319Z,20.350
2023-02-17T07:51:27.230Z,20.300
2023-02-17T07:52:32.382Z,20.900
2023-02-17T07:53:24.914Z,24.000
2023-02-17T07:54:58.763Z,22.000
2023-02-17T07:55:23.845Z,21.700
2023-02-17T07:56:32.949Z,20.700
2023-02-17T07:57:37.144Z,20.100
2023-02-17T07:58:29.911Z,21.050
2023-02-17T07:59:24.751Z,24.500
2023-02-17T08:00:30.396Z,25.700
2023-02-17T08:01:21.906Z,24.700
2023-02-17T08:02:43.109Z,23.950
2023-02-17T08:03:35.934Z,23.900
2023-02-17T08:04:23.786Z,24.800
2023-02-17T08:05:36.687Z,22.200
2023-02-17T08:06:20.793Z,22.600
2023-02-17T08:07:23.020Z,22.800
2023-02-17T08:08:26.071Z,25.800
2023-02-17T08:09:51.491Z,24.550
2023-02-17T08:10:38.361Z,23.650
2023-02-17T08:11:25.257Z,22.100
2023-02-17T08:12:27.629Z,22.000
2023-02-17T08:13:33.207Z,20.050
2023-02-17T08:14:26.039Z,19.400
2023-02-17T08:15:30.352Z,20.200
2023-02-17T08:16:23.672Z,19.850
2023-02-17T08:17:41.826Z,19.000
2023-02-17T08:18:30.626Z,19.600
2023-02-17T08:19:48.893Z,22.750
2023-02-17T08:20:36.485Z,20.100
2023-02-17T08:21:29.370Z,19.300
2023-02-17T08:22:23.269Z,19.300
2023-02-17T08:23:22.668Z,19.600
2023-02-17T08:24:20.380Z,23.550
2023-02-17T08:25:30.477Z,23.700
2023-02-17T08:26:48.765Z,24.400
2023-02-17T08:27:40.815Z,23.200
2023-02-17T08:28:32.699Z,24.400
2023-02-17T08:29:29.765Z,21.800
2023-02-17T08:30:31.391Z,21.500
2023-02-17T08:31:23.972Z,20.100
2023-02-17T08:32:59.511Z,20.800
2023-02-17T08:33:20.765Z,22.500
2023-02-17T08:34:19.476Z,22.100
2023-02-17T08:35:34.175Z,23.700
2023-02-17T08:36:31.929Z,21.200
2023-02-17T08:37:23.650Z,23.900
2023-02-17T08:38:28.784Z,23.250
2023-02-17T08:39:22.899Z,20.900
2023-02-17T08:40:24.850Z,19.950
2023-02-17T08:41:40.404Z,19.500
2023-02-17T08:42:43.439Z,18.400
2023-02-17T08:43:32.645Z,19.500
2023-02-17T08:44:27.813Z,20.700
2023-02-17T08:45:21.453Z,22.300
2023-02-17T08:46:26.548Z,23.250
2023-02-17T08:47:26.421Z,22.500
2023-02-17T08:48:54.644Z,21.500
2023-02-17T08:49:48.182Z,19.450
2023-02-17T08:50:36.082Z,19.400
2023-02-17T08:51:23.776Z,19.500
2023-02-17T08:52:24.333Z,19.400
2023-02-17T08:53:30.005Z,19.350
2023-02-17T08:54:29.258Z,19.000
2023-02-17T08:55:57.729Z,19.800
2023-02-17T08:56:52.029Z,20.400
2023-02-17T08:57:29.235Z,21.500
2023-02-17T08:58:25.651Z,22.400
2023-02-17T08:59:28.846Z,21.900
2023-02-17T09:00:21.818Z,21.550
2023-02-17T09:01:25.789Z,21.700
2023-02-17T09:03:02.359Z,21.200
2023-02-17T09:03:33.162Z,18.700
2023-02-17T09:04:42.314Z,19.000
2023-02-17T09:05:27.994Z,19.200
2023-02-17T09:06:34.951Z,20.000
2023-02-17T09:07:37.009Z,19.400
2023-02-17T09:08:24.101Z,22.050
2023-02-17T09:09:22.915Z,21.900
2023-02-17T09:10:51.817Z,22.250
2023-02-17T09:11:44.569Z,21.500
2023-02-17T09:12:32.135Z,18.700
2023-02-17T09:13:37.264Z,18.200
2023-02-17T09:14:30.266Z,19.550
2023-02-17T09:15:24.389Z,18.200
2023-02-17T09:16:27.903Z,19.900
2023-02-17T09:17:20.887Z,19.700
2023-02-17T09:18:47.837Z,19.700
2023-02-17T09:19:22.866Z,21.500
2023-02-17T09:20:25.114Z,19.700
2023-02-17T09:21:35.502Z,18.800
2023-02-17T09:22:32.218Z,19.100
2023-02-17T09:23:20.144Z,21.050
2023-02-17T09:24:24.121Z,20.500
2023-02-17T09:25:26.313Z,20.450
2023-02-17T09:26:40.761Z,19.100
2023-02-17T09:27:24.582Z,19.400
2023-02-17T09:28:39.773Z,20.450
2023-02-17T09:29:32.485Z,21.900
2023-02-17T09:30:25.805Z,21.400
2023-02-17T09:31:28.698Z,21.200
2023-02-17T09:32:20.849Z,21.550
2023-02-17T09:33:39.373Z,21.800
2023-02-17T09:34:26.119Z,21.900
2023-02-17T09:35:44.158Z,21.700
2023-02-17T09:36:22.439Z,20.900
2023-02-17T09:37:30.484Z,20.700
2023-02-17T09:38:23.008Z,20.800
2023-02-17T09:39:24.815Z,20.700
2023-02-17T09:40:43.900Z,20.150
2023-02-17T09:41:29.130Z,19.500
2023-02-17T09:42:30.594Z,19.850
2023-02-17T09:43:42.415Z,19.150
2023-02-17T09:44:35.442Z,19.700
2023-02-17T09:45:27.698Z,19.000
2023-02-17T09:46:29.675Z,18.800
2023-02-17T09:47:21.975Z,19.100
2023-02-17T09:48:32.757Z,19.400
2023-02-17T09:49:47.479Z,19.000
2023-02-17T09:50:46.030Z,19.100
2023-02-17T09:51:38.351Z,19.300
2023-02-17T09:52:27.157Z,18.600
2023-02-17T09:53:25.241Z,18.850
2023-02-17T09:54:22.020Z,20.000
2023-02-17T09:55:37.156Z,18.950
2023-02-17T09:56:22.412Z,21.400
2023-02-17T09:57:21.854Z,21.950
2023-02-17T09:58:33.301Z,22.200
2023-02-17T09:59:30.184Z,21.400
2023-02-17T10:00:24.961Z,21.500
2023-02-17T10:01:21.668Z,21.050
2023-02-17T10:02:25.220Z,21.200
2023-02-17T10:03:26.235Z,21.250
2023-02-17T10:04:21.788Z,21.600
2023-02-17T10:05:35.764Z,21.600
2023-02-17T10:06:33.290Z,20.800
2023-02-17T10:07:21.786Z,21.550
2023-02-17T10:08:19.680Z,21.950
2023-02-17T10:09:27.214Z,20.100
2023-02-17T10:10:20.021Z,21.200
2023-02-17T10:11:21.681Z,21.450
2023-02-17T10:12:51.409Z,18.300
2023-02-17T10:13:29.558Z,19.350
2023-02-17T10:14:23.095Z,19.400
2023-02-17T10:15:19.739Z,19.100
2023-02-17T10:16:23.985Z,18.550
2023-02-17T10:17:26.037Z,18.550
2023-02-17T10:18:22.024Z,20.600
2023-02-17T10:19:33.272Z,19.650
2023-02-17T10:20:27.983Z,18.800
2023-02-17T10:21:26.236Z,19.700
2023-02-17T10:22:20.115Z,20.600
2023-02-17T10:23:28.106Z,20.150
2023-02-17T10:24:26.329Z,19.700
2023-02-17T10:25:22.045Z,20.300
2023-02-17T10:26:47.901Z,19.550
2023-02-17T10:27:29.864Z,18.600
2023-02-17T10:28:24.720Z,18.250
2023-02-17T10:29:21.903Z,20.000
2023-02-17T10:30:32.218Z,20.050
2023-02-17T10:31:26.120Z,18.700
2023-02-17T10:32:26.870Z,17.800
2023-02-17T10:33:33.763Z,17.050
2023-02-17T10:34:27.829Z,18.600
2023-02-17T10:35:25.735Z,18.900
2023-02-17T10:36:20.044Z,18.500
2023-02-17T10:37:29.807Z,18.400
2023-02-17T10:38:28.621Z,18.300
2023-02-17T10:39:22.384Z,17.300
2023-02-17T10:40:21.748Z,16.850
2023-02-17T10:41:27.815Z,17.500
2023-02-17T10:42:25.475Z,18.150
2023-02-17T10:43:22.000Z,18.350
2023-02-17T10:44:30.859Z,18.600
2023-02-17T10:45:27.435Z,18.500
2023-02-17T10:46:22.074Z,18.400
2023-02-17T10:47:27.390Z,17.350
2023-02-17T10:48:27.771Z,15.850
2023-02-17T10:49:23.789Z,16.900
2023-02-17T10:50:20.418Z,16.700
2023-02-17T10:51:31.513Z,15.950
2023-02-17T10:52:25.652Z,15.800
2023-02-17T10:53:24.152Z,15.800
2023-02-17T10:54:22.178Z,15.050
2023-02-17T10:55:23.758Z,16.300
2023-02-17T10:56:23.753Z,16.550
2023-02-17T10:57:21.326Z,15.600
2023-02-17T10:58:31.340Z,15.250
2023-02-17T10:59:26.427Z,14.700
2023-02-17T11:00:23.395Z,14.400
2023-02-17T11:01:23.853Z,15.800
2023-02-17T11:02:28.211Z,16.100
2023-02-17T11:03:21.216Z,17.850
2023-02-17T11:04:20.385Z,17.750
2023-02-17T11:05:29.957Z,18.200
2023-02-17T11:06:27.208Z,17.650
2023-02-17T11:07:21.799Z,17.300
2023-02-17T11:08:26.245Z,16.900
2023-02-17T11:09:25.605Z,15.700
2023-02-17T11:10:24.304Z,15.900
2023-02-17T11:11:34.428Z,16.900
2023-02-17T11:12:22.057Z,16.850
2023-02-17T11:13:26.068Z,15.400
2023-02-17T11:14:23.187Z,16.200
2023-02-17T11:15:36.264Z,15.900
2023-02-17T11:16:28.658Z,16.900
2023-02-17T11:17:26.115Z,17.200
2023-02-17T11:18:21.512Z,16.200
2023-02-17T11:19:24.194Z,15.050
2023-02-17T11:20:26.852Z,15.850
2023-02-17T11:21:24.017Z,15.600
2023-02-17T11:22:34.029Z,15.100
2023-02-17T11:23:28.860Z,14.400
2023-02-17T11:24:25.291Z,15.300
2023-02-17T11:25:19.642Z,16.400
2023-02-17T11:26:29.997Z,15.850
2023-02-17T11:27:27.641Z,15.300
2023-02-17T11:28:24.004Z,15.650
2023-02-17T11:29:31.879Z,15.000
2023-02-17T11:30:24.037Z,13.800
2023-02-17T11:31:24.307Z,13.500
2023-02-17T11:32:22.300Z,15.800
2023-02-17T11:33:22.395Z,15.100
2023-02-17T11:34:25.932Z,14.600
2023-02-17T11:35:25.703Z,15.300
2023-02-17T11:36:51.756Z,16.100
2023-02-17T11:37:29.046Z,14.100
2023-02-17T11:38:23.960Z,13.700
2023-02-17T11:39:20.270Z,14.300
2023-02-17T11:40:22.351Z,14.500
2023-02-17T11:41:20.124Z,13.750
2023-02-17T11:42:21.935Z,13.000
2023-02-17T11:43:33.141Z,13.350
2023-02-17T11:44:28.450Z,13.100
2023-02-17T11:45:20.439Z,12.950
2023-02-17T11:46:20.607Z,14.000
2023-02-17T11:47:24.081Z,14.750
2023-02-17T11:48:25.811Z,14.600
2023-02-17T11:49:22.700Z,15.900
2023-02-17T11:50:41.154Z,14.900
2023-02-17T11:51:28.503Z,15.000
2023-02-17T11:52:24.920Z,14.800
2023-02-17T11:53:34.747Z,13.600
2023-02-17T11:54:29.677Z,14.000
2023-02-17T11:55:21.134Z,14.200
2023-02-17T11:56:22.059Z,13.900
2023-02-17T11:57:33.756Z,13.700
2023-02-17T11:58:28.213Z,13.800
2023-02-17T11:59:25.318Z,13.150
2023-02-17T12:00:19.897Z,12.350
2023-02-17T12:01:32.263Z,13.100
2023-02-17T12:02:25.733Z,13.150
2023-02-17T12:03:23.975Z,15.300
2023-02-17T12:04:33.518Z,13.550
2023-02-17T12:05:27.636Z,14.050
2023-02-17T12:06:24.409Z,13.800
2023-02-17T12:07:20.537Z,13.350
2023-02-17T12:08:30.134Z,13.100
2023-02-17T12:09:25.840Z,11.950
2023-02-17T12:10:22.465Z,12.600
2023-02-17T12:11:22.506Z,13.850
2023-02-17T12:12:29.479Z,12.900
2023-02-17T12:13:23.757Z,12.700
2023-02-17T12:14:19.899Z,12.900
2023-02-17T12:15:31.560Z,13.800
2023-02-17T12:16:26.165Z,12.200
2023-02-17T12:17:22.193Z,12.800
2023-02-17T12:18:19.501Z,13.650
2023-02-17T12:19:24.427Z,12.800
2023-02-17T12:20:23.757Z,12.450
2023-02-17T12:21:19.821Z,11.000
2023-02-17T12:22:32.122Z,11.200
2023-02-17T12:23:26.108Z,13.450
2023-02-17T12:24:25.347Z,12.900
2023-02-17T12:25:25.992Z,13.150
2023-02-17T12:26:21.722Z,14.350
2023-02-17T12:27:24.084Z,13.000
2023-02-17T12:28:20.142Z,12.550
2023-02-17T12:29:30.073Z,12.300
2023-02-17T12:30:23.803Z,12.950
2023-02-17T12:31:23.208Z,13.200
2023-02-17T12:32:28.628Z,13.650
2023-02-17T12:33:23.037Z,15.600
2023-02-17T12:34:24.086Z,14.450
2023-02-17T12:35:20.138Z,16.700
2023-02-17T12:36:28.151Z,17.200
2023-02-17T12:37:25.963Z,18.050